Friday, October 19, 2018, 9:56 PM GMT
Back to Local

CYGP, Gaspe, Que.

Location: , , Canada Lat: 48.767
Local Time: 9:56 PM GMT (21:56 GMT) Lon: -64.483
Time Zone: GMT Elev: 108 ft

Show me the last for .
Show Coded

Time T Td Feel RH Dir Speed Gust Alt SLP Vis Weather Sky Remarks
2018-10-19 21:00 34 18 - 50 - Calm - 29.90 29.91 15 SCT140 SCT250 None
2018-10-19 20:00 36 9 33 31 290° 3 - 29.90 29.91 15 SCT150 BKN250 None
2018-10-19 19:00 39 7 30 25 270° 12 17 29.90 29.91 15 FEW180 FEW220 None
2018-10-19 18:00 37 5 27 25 270° 14 22 29.90 29.91 15 FEW220 None
2018-10-19 17:00 37 5 27 25 300° 10 22 29.91 29.92 15 FEW220 None
2018-10-19 16:00 37 9 27 29 330° 13 21 29.92 29.92 15 FEW040 FEW220 None
2018-10-19 15:00 34 14 22 43 320° 14 20 29.93 29.94 15 FEW040 FEW220 None
2018-10-19 14:00 32 14 19 46 300° 17 23 29.92 29.93 15 FEW040 None
2018-10-19 13:00 32 14 18 46 310° 18 26 29.93 29.94 15 SCT040 None
2018-10-19 12:00 30 14 18 50 280° 14 20 29.91 29.92 15 BKN040 None
2018-10-19 11:00 30 14 20 50 290° 13 - 29.89 29.90 15 BKN040 None
2018-10-19 10:00 30 14 16 50 300° 18 24 29.88 29.89 15 BKN040 None
2018-10-19 09:00 30 12 15 46 300° 16 32 29.86 29.87 15 BKN040 None
2018-10-19 08:00 30 14 16 50 310° 12 28 29.83 29.84 15 OVC040 None
2018-10-19 07:00 30 14 14 50 320° 20 33 29.81 29.82 15 FEW045 None
2018-10-19 06:00 30 14 15 50 300° 18 31 29.80 29.81 15 SCT040 None
2018-10-19 05:00 30 16 17 54 290° 14 23 29.79 29.80 15 SCT040 None
2018-10-19 04:00 30 16 15 54 290° 23 32 29.77 29.78 15 CLR None
2018-10-19 03:00 30 16 16 54 290° 15 28 29.76 29.77 15 CLR None
2018-10-19 02:00 32 18 18 54 290° 17 30 29.75 29.76 15 CLR None
2018-10-19 01:00 32 19 17 59 300° 18 33 29.73 29.74 15 FEW180 None
2018-10-19 00:00 34 18 19 50 290° 20 36 29.71 29.72 15 FEW200 FEW210 None
2018-10-18 23:00 34 19 20 55 290° 15 30 29.70 29.71 15 BKN053 None
2018-10-18 22:00 34 21 20 59 290° 17 29 29.68 29.69 15 BKN051 None

Support USWX by starting your Amazon purchase here.